sensor_id;sensor_type;location;lat;lon;timestamp;P1;durP1;ratioP1;P2;durP2;ratioP2
17921;SDS011;9086;50.966;3.144;2022-11-15T00:02:12;74.03;;;69.73;;
17921;SDS011;9086;50.966;3.144;2022-11-15T00:04:38;77.07;;;72.33;;
17921;SDS011;9086;50.966;3.144;2022-11-15T00:07:04;80.77;;;75.87;;
17921;SDS011;9086;50.966;3.144;2022-11-15T00:09:30;73.17;;;68.60;;
17921;SDS011;9086;50.966;3.144;2022-11-15T00:11:56;78.10;;;73.00;;
17921;SDS011;9086;50.966;3.144;2022-11-15T00:14:22;75.53;;;70.97;;
17921;SDS011;9086;50.966;3.144;2022-11-15T00:16:48;84.07;;;79.47;;
17921;SDS011;9086;50.966;3.144;2022-11-15T00:19:14;88.37;;;83.47;;
17921;SDS011;9086;50.966;3.144;2022-11-15T00:21:41;90.20;;;84.90;;
17921;SDS011;9086;50.966;3.144;2022-11-15T00:24:07;88.27;;;83.20;;
17921;SDS011;9086;50.966;3.144;2022-11-15T00:26:33;87.53;;;82.53;;
17921;SDS011;9086;50.966;3.144;2022-11-15T00:28:59;84.47;;;79.43;;
17921;SDS011;9086;50.966;3.144;2022-11-15T00:31:25;89.93;;;85.03;;
17921;SDS011;9086;50.966;3.144;2022-11-15T00:33:51;93.20;;;87.87;;
17921;SDS011;9086;50.966;3.144;2022-11-15T00:36:17;91.80;;;86.63;;
17921;SDS011;9086;50.966;3.144;2022-11-15T00:38:43;91.23;;;86.73;;
17921;SDS011;9086;50.966;3.144;2022-11-15T00:41:09;85.83;;;81.43;;
17921;SDS011;9086;50.966;3.144;2022-11-15T00:43:35;87.97;;;83.47;;
17921;SDS011;9086;50.966;3.144;2022-11-15T00:46:01;85.90;;;81.30;;
17921;SDS011;9086;50.966;3.144;2022-11-15T00:48:28;85.53;;;81.13;;
17921;SDS011;9086;50.966;3.144;2022-11-15T00:50:54;87.80;;;83.43;;
17921;SDS011;9086;50.966;3.144;2022-11-15T00:53:20;83.63;;;79.27;;
17921;SDS011;9086;50.966;3.144;2022-11-15T00:55:46;79.73;;;75.53;;
17921;SDS011;9086;50.966;3.144;2022-11-15T00:58:12;79.30;;;75.30;;
17921;SDS011;9086;50.966;3.144;2022-11-15T01:00:38;77.83;;;73.67;;
17921;SDS011;9086;50.966;3.144;2022-11-15T01:03:04;81.10;;;76.60;;
17921;SDS011;9086;50.966;3.144;2022-11-15T01:05:30;76.37;;;72.13;;
17921;SDS011;9086;50.966;3.144;2022-11-15T01:07:56;75.63;;;71.50;;
17921;SDS011;9086;50.966;3.144;2022-11-15T01:10:23;76.13;;;72.23;;
17921;SDS011;9086;50.966;3.144;2022-11-15T01:12:50;76.53;;;72.53;;
17921;SDS011;9086;50.966;3.144;2022-11-15T01:15:16;74.63;;;70.83;;
17921;SDS011;9086;50.966;3.144;2022-11-15T01:17:42;70.43;;;66.63;;
17921;SDS011;9086;50.966;3.144;2022-11-15T01:20:09;67.07;;;62.83;;
17921;SDS011;9086;50.966;3.144;2022-11-15T01:22:35;64.60;;;60.70;;
17921;SDS011;9086;50.966;3.144;2022-11-15T01:25:01;65.93;;;62.20;;
17921;SDS011;9086;50.966;3.144;2022-11-15T01:27:27;65.57;;;62.17;;
17921;SDS011;9086;50.966;3.144;2022-11-15T01:29:53;64.27;;;60.63;;
17921;SDS011;9086;50.966;3.144;2022-11-15T01:32:19;61.13;;;57.33;;
17921;SDS011;9086;50.966;3.144;2022-11-15T01:34:45;59.60;;;56.27;;
17921;SDS011;9086;50.966;3.144;2022-11-15T01:37:11;60.30;;;56.50;;
17921;SDS011;9086;50.966;3.144;2022-11-15T01:39:37;61.93;;;58.43;;
17921;SDS011;9086;50.966;3.144;2022-11-15T01:42:03;57.73;;;54.40;;
17921;SDS011;9086;50.966;3.144;2022-11-15T01:47:26;54.67;;;51.23;;
17921;SDS011;9086;50.966;3.144;2022-11-15T01:49:57;48.63;;;45.87;;
17921;SDS011;9086;50.966;3.144;2022-11-15T01:52:25;46.33;;;43.47;;
17921;SDS011;9086;50.966;3.144;2022-11-15T01:55:05;49.83;;;47.07;;
17921;SDS011;9086;50.966;3.144;2022-11-15T01:57:32;47.53;;;44.30;;
17921;SDS011;9086;50.966;3.144;2022-11-15T01:59:59;43.73;;;41.10;;
17921;SDS011;9086;50.966;3.144;2022-11-15T02:02:26;44.97;;;42.20;;
17921;SDS011;9086;50.966;3.144;2022-11-15T02:04:52;40.60;;;38.10;;
17921;SDS011;9086;50.966;3.144;2022-11-15T02:07:19;36.07;;;33.63;;
17921;SDS011;9086;50.966;3.144;2022-11-15T02:09:45;32.13;;;29.70;;
17921;SDS011;9086;50.966;3.144;2022-11-15T02:12:13;31.73;;;29.73;;
17921;SDS011;9086;50.966;3.144;2022-11-15T02:14:40;28.37;;;26.60;;
17921;SDS011;9086;50.966;3.144;2022-11-15T02:24:48;25.30;;;23.73;;
17921;SDS011;9086;50.966;3.144;2022-11-15T02:32:34;21.90;;;20.50;;
17921;SDS011;9086;50.966;3.144;2022-11-15T02:37:37;19.53;;;18.23;;
17921;SDS011;9086;50.966;3.144;2022-11-15T02:40:13;20.57;;;19.13;;
17921;SDS011;9086;50.966;3.144;2022-11-15T02:42:45;19.90;;;18.57;;
17921;SDS011;9086;50.966;3.144;2022-11-15T02:45:50;21.43;;;19.83;;
17921;SDS011;9086;50.966;3.144;2022-11-15T02:48:16;18.83;;;17.27;;
17921;SDS011;9086;50.966;3.144;2022-11-15T02:50:43;17.27;;;16.10;;
17921;SDS011;9086;50.966;3.144;2022-11-15T02:53:09;15.67;;;14.37;;
17921;SDS011;9086;50.966;3.144;2022-11-15T02:55:41;15.53;;;14.53;;
17921;SDS011;9086;50.966;3.144;2022-11-15T03:03:40;12.90;;;11.53;;
17921;SDS011;9086;50.966;3.144;2022-11-15T03:11:17;10.90;;;9.83;;
17921;SDS011;9086;50.966;3.144;2022-11-15T03:13:57;11.27;;;10.23;;
17921;SDS011;9086;50.966;3.144;2022-11-15T03:16:41;11.27;;;10.53;;
17921;SDS011;9086;50.966;3.144;2022-11-15T03:22:08;10.60;;;9.70;;
17921;SDS011;9086;50.966;3.144;2022-11-15T03:24:37;11.67;;;9.83;;
17921;SDS011;9086;50.966;3.144;2022-11-15T03:27:05;9.87;;;9.07;;
17921;SDS011;9086;50.966;3.144;2022-11-15T03:29:33;10.17;;;9.17;;
17921;SDS011;9086;50.966;3.144;2022-11-15T03:32:02;11.50;;;9.97;;
17921;SDS011;9086;50.966;3.144;2022-11-15T03:34:30;10.37;;;9.23;;
17921;SDS011;9086;50.966;3.144;2022-11-15T03:36:57;10.10;;;8.83;;
17921;SDS011;9086;50.966;3.144;2022-11-15T03:39:23;8.50;;;7.77;;
17921;SDS011;9086;50.966;3.144;2022-11-15T03:49:44;9.87;;;8.70;;
17921;SDS011;9086;50.966;3.144;2022-11-15T03:52:12;10.27;;;9.30;;
17921;SDS011;9086;50.966;3.144;2022-11-15T03:54:47;9.20;;;8.33;;
17921;SDS011;9086;50.966;3.144;2022-11-15T03:57:13;9.10;;;8.30;;
17921;SDS011;9086;50.966;3.144;2022-11-15T03:59:39;9.00;;;8.10;;
17921;SDS011;9086;50.966;3.144;2022-11-15T04:02:05;10.67;;;7.43;;
17921;SDS011;9086;50.966;3.144;2022-11-15T04:04:31;8.07;;;6.97;;
17921;SDS011;9086;50.966;3.144;2022-11-15T04:06:57;8.10;;;7.00;;
17921;SDS011;9086;50.966;3.144;2022-11-15T04:09:23;10.07;;;7.33;;
17921;SDS011;9086;50.966;3.144;2022-11-15T04:11:49;8.23;;;7.40;;
17921;SDS011;9086;50.966;3.144;2022-11-15T04:14:15;7.27;;;6.43;;
17921;SDS011;9086;50.966;3.144;2022-11-15T04:16:41;10.40;;;7.43;;
17921;SDS011;9086;50.966;3.144;2022-11-15T04:19:07;8.33;;;7.53;;
17921;SDS011;9086;50.966;3.144;2022-11-15T04:21:52;8.43;;;7.03;;
17921;SDS011;9086;50.966;3.144;2022-11-15T04:24:37;10.27;;;6.63;;
17921;SDS011;9086;50.966;3.144;2022-11-15T04:27:03;9.37;;;7.03;;
17921;SDS011;9086;50.966;3.144;2022-11-15T04:29:29;8.37;;;7.10;;
17921;SDS011;9086;50.966;3.144;2022-11-15T04:32:02;7.77;;;6.97;;
17921;SDS011;9086;50.966;3.144;2022-11-15T04:34:28;9.43;;;7.60;;
17921;SDS011;9086;50.966;3.144;2022-11-15T04:36:54;11.60;;;8.23;;
17921;SDS011;9086;50.966;3.144;2022-11-15T04:39:39;8.23;;;7.13;;
17921;SDS011;9086;50.966;3.144;2022-11-15T04:42:05;8.47;;;7.63;;
17921;SDS011;9086;50.966;3.144;2022-11-15T04:44:31;9.67;;;7.47;;
17921;SDS011;9086;50.966;3.144;2022-11-15T04:46:58;11.57;;;8.70;;
17921;SDS011;9086;50.966;3.144;2022-11-15T04:49:24;12.07;;;9.77;;
17921;SDS011;9086;50.966;3.144;2022-11-15T04:51:50;14.57;;;11.53;;
17921;SDS011;9086;50.966;3.144;2022-11-15T04:54:16;13.30;;;11.43;;
17921;SDS011;9086;50.966;3.144;2022-11-15T04:56:42;13.63;;;10.33;;
17921;SDS011;9086;50.966;3.144;2022-11-15T04:59:08;14.20;;;8.93;;
17921;SDS011;9086;50.966;3.144;2022-11-15T05:01:34;9.00;;;7.83;;
17921;SDS011;9086;50.966;3.144;2022-11-15T05:04:00;11.20;;;7.93;;
17921;SDS011;9086;50.966;3.144;2022-11-15T05:06:44;10.87;;;7.50;;
17921;SDS011;9086;50.966;3.144;2022-11-15T05:09:11;8.37;;;7.17;;
17921;SDS011;9086;50.966;3.144;2022-11-15T05:11:38;8.50;;;6.77;;
17921;SDS011;9086;50.966;3.144;2022-11-15T05:14:04;8.63;;;7.73;;
17921;SDS011;9086;50.966;3.144;2022-11-15T05:16:30;10.50;;;7.40;;
17921;SDS011;9086;50.966;3.144;2022-11-15T05:18:56;8.07;;;7.27;;
17921;SDS011;9086;50.966;3.144;2022-11-15T05:21:22;9.33;;;7.87;;
17921;SDS011;9086;50.966;3.144;2022-11-15T05:23:48;9.73;;;7.37;;
17921;SDS011;9086;50.966;3.144;2022-11-15T05:26:14;8.53;;;7.73;;
17921;SDS011;9086;50.966;3.144;2022-11-15T05:28:41;9.17;;;7.37;;
17921;SDS011;9086;50.966;3.144;2022-11-15T05:31:09;7.00;;;6.40;;
17921;SDS011;9086;50.966;3.144;2022-11-15T05:33:35;12.03;;;7.87;;
17921;SDS011;9086;50.966;3.144;2022-11-15T05:36:06;8.10;;;7.10;;
17921;SDS011;9086;50.966;3.144;2022-11-15T05:38:33;8.63;;;7.03;;
17921;SDS011;9086;50.966;3.144;2022-11-15T05:40:59;10.17;;;7.07;;
17921;SDS011;9086;50.966;3.144;2022-11-15T05:43:26;10.43;;;7.37;;
17921;SDS011;9086;50.966;3.144;2022-11-15T05:45:52;11.70;;;8.73;;
17921;SDS011;9086;50.966;3.144;2022-11-15T05:48:18;6.80;;;6.20;;
17921;SDS011;9086;50.966;3.144;2022-11-15T05:50:45;11.10;;;6.83;;
17921;SDS011;9086;50.966;3.144;2022-11-15T05:53:12;8.23;;;6.90;;
17921;SDS011;9086;50.966;3.144;2022-11-15T05:55:40;9.67;;;6.83;;
17921;SDS011;9086;50.966;3.144;2022-11-15T05:58:06;9.90;;;8.20;;
17921;SDS011;9086;50.966;3.144;2022-11-15T06:00:32;11.73;;;9.03;;
17921;SDS011;9086;50.966;3.144;2022-11-15T06:02:59;10.17;;;8.73;;
17921;SDS011;9086;50.966;3.144;2022-11-15T06:05:25;10.80;;;8.13;;
17921;SDS011;9086;50.966;3.144;2022-11-15T06:07:51;10.43;;;9.43;;
17921;SDS011;9086;50.966;3.144;2022-11-15T06:10:17;12.33;;;9.53;;
17921;SDS011;9086;50.966;3.144;2022-11-15T06:12:43;9.03;;;8.13;;
17921;SDS011;9086;50.966;3.144;2022-11-15T06:15:09;12.13;;;10.20;;
17921;SDS011;9086;50.966;3.144;2022-11-15T06:17:35;12.47;;;11.37;;
17921;SDS011;9086;50.966;3.144;2022-11-15T06:20:01;13.53;;;10.77;;
17921;SDS011;9086;50.966;3.144;2022-11-15T06:22:28;11.53;;;10.53;;
17921;SDS011;9086;50.966;3.144;2022-11-15T06:24:54;15.17;;;12.03;;
17921;SDS011;9086;50.966;3.144;2022-11-15T06:27:20;11.23;;;10.00;;
17921;SDS011;9086;50.966;3.144;2022-11-15T06:29:46;10.90;;;10.00;;
17921;SDS011;9086;50.966;3.144;2022-11-15T06:32:12;10.97;;;10.07;;
17921;SDS011;9086;50.966;3.144;2022-11-15T06:34:38;12.07;;;10.97;;
17921;SDS011;9086;50.966;3.144;2022-11-15T06:37:04;12.97;;;11.87;;
17921;SDS011;9086;50.966;3.144;2022-11-15T06:39:30;13.40;;;12.10;;
17921;SDS011;9086;50.966;3.144;2022-11-15T06:41:56;13.07;;;11.87;;
17921;SDS011;9086;50.966;3.144;2022-11-15T06:44:22;12.97;;;11.60;;
17921;SDS011;9086;50.966;3.144;2022-11-15T06:46:48;13.47;;;11.87;;
17921;SDS011;9086;50.966;3.144;2022-11-15T06:49:14;19.23;;;13.50;;
17921;SDS011;9086;50.966;3.144;2022-11-15T06:51:41;14.60;;;13.27;;
17921;SDS011;9086;50.966;3.144;2022-11-15T06:54:07;14.90;;;13.33;;
17921;SDS011;9086;50.966;3.144;2022-11-15T06:56:33;15.10;;;13.87;;
17921;SDS011;9086;50.966;3.144;2022-11-15T06:59:00;14.23;;;12.83;;
17921;SDS011;9086;50.966;3.144;2022-11-15T07:01:26;15.07;;;13.33;;
17921;SDS011;9086;50.966;3.144;2022-11-15T07:03:52;15.63;;;13.00;;
17921;SDS011;9086;50.966;3.144;2022-11-15T07:06:18;15.53;;;14.33;;
17921;SDS011;9086;50.966;3.144;2022-11-15T07:08:44;15.50;;;13.87;;
17921;SDS011;9086;50.966;3.144;2022-11-15T07:11:10;15.93;;;14.37;;
17921;SDS011;9086;50.966;3.144;2022-11-15T07:13:36;16.87;;;13.03;;
17921;SDS011;9086;50.966;3.144;2022-11-15T07:16:06;14.93;;;13.50;;
17921;SDS011;9086;50.966;3.144;2022-11-15T07:18:34;14.87;;;13.57;;
17921;SDS011;9086;50.966;3.144;2022-11-15T07:21:03;17.50;;;15.00;;
17921;SDS011;9086;50.966;3.144;2022-11-15T07:23:29;17.07;;;15.03;;
17921;SDS011;9086;50.966;3.144;2022-11-15T07:25:56;16.07;;;14.57;;
17921;SDS011;9086;50.966;3.144;2022-11-15T07:28:23;17.90;;;15.73;;
17921;SDS011;9086;50.966;3.144;2022-11-15T07:30:49;15.73;;;14.43;;
17921;SDS011;9086;50.966;3.144;2022-11-15T07:33:15;17.83;;;16.23;;
17921;SDS011;9086;50.966;3.144;2022-11-15T07:35:41;16.83;;;15.37;;
17921;SDS011;9086;50.966;3.144;2022-11-15T07:38:07;16.97;;;15.47;;
17921;SDS011;9086;50.966;3.144;2022-11-15T07:40:33;15.87;;;14.67;;
17921;SDS011;9086;50.966;3.144;2022-11-15T07:43:04;18.90;;;17.20;;
17921;SDS011;9086;50.966;3.144;2022-11-15T07:45:30;17.77;;;16.17;;
17921;SDS011;9086;50.966;3.144;2022-11-15T07:47:58;15.77;;;14.27;;
17921;SDS011;9086;50.966;3.144;2022-11-15T07:50:24;16.20;;;14.00;;
17921;SDS011;9086;50.966;3.144;2022-11-15T07:52:54;12.43;;;11.27;;
17921;SDS011;9086;50.966;3.144;2022-11-15T07:55:20;15.03;;;13.20;;
17921;SDS011;9086;50.966;3.144;2022-11-15T07:57:47;13.10;;;11.77;;
17921;SDS011;9086;50.966;3.144;2022-11-15T08:00:13;14.60;;;13.27;;
17921;SDS011;9086;50.966;3.144;2022-11-15T08:02:39;13.17;;;11.07;;
17921;SDS011;9086;50.966;3.144;2022-11-15T08:05:05;9.83;;;8.63;;
17921;SDS011;9086;50.966;3.144;2022-11-15T08:07:32;11.27;;;10.13;;
17921;SDS011;9086;50.966;3.144;2022-11-15T08:09:58;11.23;;;9.60;;
17921;SDS011;9086;50.966;3.144;2022-11-15T08:12:26;10.07;;;9.03;;
17921;SDS011;9086;50.966;3.144;2022-11-15T08:14:53;8.97;;;7.93;;
17921;SDS011;9086;50.966;3.144;2022-11-15T08:17:20;10.67;;;8.33;;
17921;SDS011;9086;50.966;3.144;2022-11-15T08:19:46;9.47;;;7.87;;
17921;SDS011;9086;50.966;3.144;2022-11-15T08:22:13;11.67;;;7.33;;
17921;SDS011;9086;50.966;3.144;2022-11-15T08:24:39;14.17;;;6.90;;
17921;SDS011;9086;50.966;3.144;2022-11-15T08:27:06;8.53;;;6.90;;
17921;SDS011;9086;50.966;3.144;2022-11-15T08:29:39;9.03;;;7.13;;
17921;SDS011;9086;50.966;3.144;2022-11-15T08:32:06;7.63;;;5.87;;
17921;SDS011;9086;50.966;3.144;2022-11-15T08:34:32;9.93;;;5.50;;
17921;SDS011;9086;50.966;3.144;2022-11-15T08:36:58;9.27;;;4.60;;
17921;SDS011;9086;50.966;3.144;2022-11-15T08:39:24;7.57;;;4.40;;
17921;SDS011;9086;50.966;3.144;2022-11-15T08:41:50;8.33;;;4.00;;
17921;SDS011;9086;50.966;3.144;2022-11-15T08:44:16;8.80;;;4.43;;
17921;SDS011;9086;50.966;3.144;2022-11-15T08:46:44;8.57;;;4.37;;
17921;SDS011;9086;50.966;3.144;2022-11-15T08:49:11;8.00;;;3.60;;
17921;SDS011;9086;50.966;3.144;2022-11-15T08:51:37;4.80;;;3.53;;
17921;SDS011;9086;50.966;3.144;2022-11-15T08:54:03;6.70;;;3.63;;
17921;SDS011;9086;50.966;3.144;2022-11-15T08:56:29;8.83;;;3.37;;
17921;SDS011;9086;50.966;3.144;2022-11-15T08:58:55;9.37;;;3.90;;
17921;SDS011;9086;50.966;3.144;2022-11-15T09:01:21;6.93;;;2.90;;
17921;SDS011;9086;50.966;3.144;2022-11-15T09:03:47;8.23;;;3.07;;
17921;SDS011;9086;50.966;3.144;2022-11-15T09:06:13;5.17;;;2.70;;
17921;SDS011;9086;50.966;3.144;2022-11-15T09:08:40;4.17;;;2.50;;
17921;SDS011;9086;50.966;3.144;2022-11-15T09:11:07;3.43;;;2.30;;
17921;SDS011;9086;50.966;3.144;2022-11-15T09:13:33;11.90;;;3.90;;
17921;SDS011;9086;50.966;3.144;2022-11-15T09:16:00;9.17;;;3.27;;
17921;SDS011;9086;50.966;3.144;2022-11-15T09:18:26;5.77;;;2.60;;
17921;SDS011;9086;50.966;3.144;2022-11-15T09:20:56;5.97;;;2.00;;
17921;SDS011;9086;50.966;3.144;2022-11-15T09:23:23;5.53;;;2.03;;
17921;SDS011;9086;50.966;3.144;2022-11-15T09:25:49;7.90;;;2.47;;
17921;SDS011;9086;50.966;3.144;2022-11-15T09:28:15;5.77;;;3.03;;
17921;SDS011;9086;50.966;3.144;2022-11-15T09:30:41;4.20;;;1.70;;
17921;SDS011;9086;50.966;3.144;2022-11-15T09:33:08;4.33;;;1.67;;
17921;SDS011;9086;50.966;3.144;2022-11-15T09:35:34;2.40;;;1.37;;
17921;SDS011;9086;50.966;3.144;2022-11-15T09:38:00;6.57;;;2.00;;
17921;SDS011;9086;50.966;3.144;2022-11-15T09:40:27;3.40;;;1.47;;
17921;SDS011;9086;50.966;3.144;2022-11-15T09:45:49;3.03;;;1.70;;
17921;SDS011;9086;50.966;3.144;2022-11-15T09:48:27;4.67;;;1.57;;
17921;SDS011;9086;50.966;3.144;2022-11-15T09:50:58;4.50;;;1.67;;
17921;SDS011;9086;50.966;3.144;2022-11-15T09:53:38;2.83;;;1.20;;
17921;SDS011;9086;50.966;3.144;2022-11-15T09:56:12;6.57;;;2.17;;
17921;SDS011;9086;50.966;3.144;2022-11-15T09:58:41;6.57;;;2.00;;
17921;SDS011;9086;50.966;3.144;2022-11-15T10:01:14;5.03;;;1.87;;
17921;SDS011;9086;50.966;3.144;2022-11-15T10:03:42;6.40;;;2.00;;
17921;SDS011;9086;50.966;3.144;2022-11-15T10:06:15;7.47;;;1.80;;
17921;SDS011;9086;50.966;3.144;2022-11-15T10:08:50;5.40;;;2.10;;
17921;SDS011;9086;50.966;3.144;2022-11-15T10:11:23;8.07;;;2.03;;
17921;SDS011;9086;50.966;3.144;2022-11-15T10:13:51;6.67;;;2.17;;
17921;SDS011;9086;50.966;3.144;2022-11-15T10:21:19;6.67;;;1.33;;
17921;SDS011;9086;50.966;3.144;2022-11-15T10:23:46;11.53;;;2.03;;
17921;SDS011;9086;50.966;3.144;2022-11-15T10:26:13;6.63;;;1.97;;
17921;SDS011;9086;50.966;3.144;2022-11-15T10:28:40;5.33;;;2.10;;
17921;SDS011;9086;50.966;3.144;2022-11-15T10:31:23;4.70;;;1.50;;
17921;SDS011;9086;50.966;3.144;2022-11-15T10:33:49;6.03;;;1.77;;
17921;SDS011;9086;50.966;3.144;2022-11-15T10:41:16;8.07;;;2.03;;
17921;SDS011;9086;50.966;3.144;2022-11-15T10:43:42;4.77;;;2.00;;
17921;SDS011;9086;50.966;3.144;2022-11-15T10:46:18;4.43;;;2.03;;
17921;SDS011;9086;50.966;3.144;2022-11-15T10:48:44;5.47;;;1.60;;
17921;SDS011;9086;50.966;3.144;2022-11-15T10:51:19;7.67;;;2.37;;
17921;SDS011;9086;50.966;3.144;2022-11-15T10:53:47;5.60;;;1.80;;
17921;SDS011;9086;50.966;3.144;2022-11-15T10:56:14;3.57;;;1.37;;
17921;SDS011;9086;50.966;3.144;2022-11-15T10:58:44;12.33;;;2.03;;
17921;SDS011;9086;50.966;3.144;2022-11-15T11:01:15;3.30;;;1.60;;
17921;SDS011;9086;50.966;3.144;2022-11-15T11:03:42;6.13;;;2.43;;
17921;SDS011;9086;50.966;3.144;2022-11-15T11:06:13;5.07;;;1.73;;
17921;SDS011;9086;50.966;3.144;2022-11-15T11:08:39;4.30;;;1.57;;
17921;SDS011;9086;50.966;3.144;2022-11-15T11:11:06;7.30;;;2.30;;
17921;SDS011;9086;50.966;3.144;2022-11-15T11:13:36;2.50;;;1.57;;
17921;SDS011;9086;50.966;3.144;2022-11-15T11:18:47;7.00;;;1.57;;
17921;SDS011;9086;50.966;3.144;2022-11-15T11:21:19;5.23;;;1.83;;
17921;SDS011;9086;50.966;3.144;2022-11-15T11:23:52;3.13;;;1.60;;
17921;SDS011;9086;50.966;3.144;2022-11-15T11:26:40;7.07;;;2.33;;
17921;SDS011;9086;50.966;3.144;2022-11-15T11:34:31;4.73;;;1.70;;
17921;SDS011;9086;50.966;3.144;2022-11-15T11:39:48;11.60;;;2.33;;
17921;SDS011;9086;50.966;3.144;2022-11-15T11:47:32;5.13;;;2.07;;
17921;SDS011;9086;50.966;3.144;2022-11-15T11:50:13;3.13;;;1.67;;
17921;SDS011;9086;50.966;3.144;2022-11-15T11:52:54;8.33;;;2.33;;
17921;SDS011;9086;50.966;3.144;2022-11-15T11:55:30;4.23;;;1.57;;
17921;SDS011;9086;50.966;3.144;2022-11-15T12:00:43;6.17;;;1.73;;
17921;SDS011;9086;50.966;3.144;2022-11-15T12:05:41;6.93;;;2.13;;
17921;SDS011;9086;50.966;3.144;2022-11-15T12:08:15;5.13;;;2.33;;
17921;SDS011;9086;50.966;3.144;2022-11-15T12:10:45;6.70;;;1.93;;
17921;SDS011;9086;50.966;3.144;2022-11-15T12:13:14;4.10;;;1.60;;
17921;SDS011;9086;50.966;3.144;2022-11-15T12:15:43;4.03;;;1.70;;
17921;SDS011;9086;50.966;3.144;2022-11-15T12:18:12;3.13;;;1.60;;
17921;SDS011;9086;50.966;3.144;2022-11-15T12:20:40;6.07;;;2.10;;
17921;SDS011;9086;50.966;3.144;2022-11-15T12:23:13;4.53;;;2.03;;
17921;SDS011;9086;50.966;3.144;2022-11-15T12:25:44;4.40;;;2.13;;
17921;SDS011;9086;50.966;3.144;2022-11-15T12:28:16;4.43;;;2.10;;
17921;SDS011;9086;50.966;3.144;2022-11-15T12:30:50;4.70;;;1.73;;
17921;SDS011;9086;50.966;3.144;2022-11-15T12:33:37;2.93;;;1.90;;
17921;SDS011;9086;50.966;3.144;2022-11-15T12:36:04;7.63;;;2.27;;
17921;SDS011;9086;50.966;3.144;2022-11-15T12:41:16;5.60;;;1.80;;
17921;SDS011;9086;50.966;3.144;2022-11-15T12:43:43;4.60;;;2.03;;
17921;SDS011;9086;50.966;3.144;2022-11-15T12:46:20;5.87;;;2.17;;
17921;SDS011;9086;50.966;3.144;2022-11-15T12:51:13;4.80;;;2.50;;
17921;SDS011;9086;50.966;3.144;2022-11-15T12:53:39;5.37;;;2.30;;
17921;SDS011;9086;50.966;3.144;2022-11-15T12:58:41;2.53;;;1.93;;
17921;SDS011;9086;50.966;3.144;2022-11-15T13:01:08;5.73;;;2.60;;
17921;SDS011;9086;50.966;3.144;2022-11-15T13:03:34;3.73;;;1.97;;
17921;SDS011;9086;50.966;3.144;2022-11-15T13:06:04;2.83;;;1.63;;
17921;SDS011;9086;50.966;3.144;2022-11-15T13:13:47;5.33;;;2.27;;
17921;SDS011;9086;50.966;3.144;2022-11-15T13:16:17;5.70;;;2.20;;
17921;SDS011;9086;50.966;3.144;2022-11-15T13:18:52;3.17;;;1.93;;
17921;SDS011;9086;50.966;3.144;2022-11-15T13:21:20;6.47;;;2.70;;
17921;SDS011;9086;50.966;3.144;2022-11-15T13:24:10;5.63;;;2.40;;
17921;SDS011;9086;50.966;3.144;2022-11-15T13:26:37;5.30;;;2.53;;
17921;SDS011;9086;50.966;3.144;2022-11-15T13:29:04;6.87;;;2.20;;
17921;SDS011;9086;50.966;3.144;2022-11-15T13:31:37;2.83;;;2.53;;
17921;SDS011;9086;50.966;3.144;2022-11-15T13:34:24;2.87;;;2.10;;
17921;SDS011;9086;50.966;3.144;2022-11-15T13:36:50;3.70;;;1.97;;
17921;SDS011;9086;50.966;3.144;2022-11-15T13:39:32;4.90;;;2.17;;
17921;SDS011;9086;50.966;3.144;2022-11-15T13:41:59;5.43;;;2.40;;
17921;SDS011;9086;50.966;3.144;2022-11-15T13:44:30;2.80;;;2.10;;
17921;SDS011;9086;50.966;3.144;2022-11-15T13:47:04;4.43;;;2.20;;
17921;SDS011;9086;50.966;3.144;2022-11-15T13:49:31;4.10;;;2.13;;
17921;SDS011;9086;50.966;3.144;2022-11-15T13:51:57;3.07;;;2.00;;
17921;SDS011;9086;50.966;3.144;2022-11-15T13:54:34;3.33;;;1.70;;
17921;SDS011;9086;50.966;3.144;2022-11-15T13:59:49;3.93;;;2.13;;
17921;SDS011;9086;50.966;3.144;2022-11-15T14:02:18;3.60;;;2.87;;
17921;SDS011;9086;50.966;3.144;2022-11-15T14:04:51;3.70;;;2.17;;
17921;SDS011;9086;50.966;3.144;2022-11-15T14:07:19;3.90;;;2.53;;
17921;SDS011;9086;50.966;3.144;2022-11-15T14:09:46;4.13;;;2.83;;
17921;SDS011;9086;50.966;3.144;2022-11-15T14:14:50;4.80;;;2.80;;
17921;SDS011;9086;50.966;3.144;2022-11-15T14:17:36;2.73;;;2.43;;
17921;SDS011;9086;50.966;3.144;2022-11-15T14:20:02;3.80;;;3.03;;
17921;SDS011;9086;50.966;3.144;2022-11-15T14:22:54;3.10;;;2.43;;
17921;SDS011;9086;50.966;3.144;2022-11-15T14:25:24;3.33;;;2.90;;
17921;SDS011;9086;50.966;3.144;2022-11-15T14:30:36;4.80;;;2.80;;
17921;SDS011;9086;50.966;3.144;2022-11-15T14:33:11;5.00;;;3.73;;
17921;SDS011;9086;50.966;3.144;2022-11-15T14:35:41;4.93;;;3.83;;
17921;SDS011;9086;50.966;3.144;2022-11-15T14:38:07;5.50;;;3.53;;
17921;SDS011;9086;50.966;3.144;2022-11-15T14:40:33;5.07;;;3.50;;
17921;SDS011;9086;50.966;3.144;2022-11-15T14:42:59;5.67;;;3.40;;
17921;SDS011;9086;50.966;3.144;2022-11-15T14:45:26;5.33;;;3.87;;
17921;SDS011;9086;50.966;3.144;2022-11-15T14:47:52;4.20;;;3.90;;
17921;SDS011;9086;50.966;3.144;2022-11-15T14:50:19;4.03;;;3.63;;
17921;SDS011;9086;50.966;3.144;2022-11-15T14:52:45;5.73;;;4.30;;
17921;SDS011;9086;50.966;3.144;2022-11-15T14:57:37;6.13;;;5.70;;
17921;SDS011;9086;50.966;3.144;2022-11-15T15:00:04;6.53;;;6.03;;
17921;SDS011;9086;50.966;3.144;2022-11-15T15:02:30;9.00;;;6.23;;
17921;SDS011;9086;50.966;3.144;2022-11-15T15:04:59;8.90;;;7.17;;
17921;SDS011;9086;50.966;3.144;2022-11-15T15:07:28;8.23;;;7.63;;
17921;SDS011;9086;50.966;3.144;2022-11-15T15:09:54;8.80;;;7.80;;
17921;SDS011;9086;50.966;3.144;2022-11-15T15:12:20;9.17;;;8.37;;
17921;SDS011;9086;50.966;3.144;2022-11-15T15:14:47;11.63;;;10.70;;
17921;SDS011;9086;50.966;3.144;2022-11-15T15:17:14;10.27;;;9.70;;
17921;SDS011;9086;50.966;3.144;2022-11-15T15:19:40;13.37;;;12.40;;
17921;SDS011;9086;50.966;3.144;2022-11-15T15:22:13;12.27;;;11.37;;
17921;SDS011;9086;50.966;3.144;2022-11-15T15:24:39;12.67;;;11.90;;
17921;SDS011;9086;50.966;3.144;2022-11-15T15:27:05;14.67;;;13.93;;
17921;SDS011;9086;50.966;3.144;2022-11-15T15:29:31;15.17;;;14.37;;
17921;SDS011;9086;50.966;3.144;2022-11-15T15:31:58;15.30;;;14.40;;
17921;SDS011;9086;50.966;3.144;2022-11-15T15:34:24;17.03;;;16.07;;
17921;SDS011;9086;50.966;3.144;2022-11-15T15:37:05;17.27;;;16.27;;
17921;SDS011;9086;50.966;3.144;2022-11-15T15:39:31;20.30;;;19.20;;
17921;SDS011;9086;50.966;3.144;2022-11-15T15:41:57;21.93;;;20.60;;
17921;SDS011;9086;50.966;3.144;2022-11-15T15:44:23;21.53;;;20.43;;
17921;SDS011;9086;50.966;3.144;2022-11-15T15:46:49;21.50;;;20.37;;
17921;SDS011;9086;50.966;3.144;2022-11-15T15:49:16;24.93;;;23.60;;
17921;SDS011;9086;50.966;3.144;2022-11-15T15:51:42;25.90;;;24.60;;
17921;SDS011;9086;50.966;3.144;2022-11-15T15:54:08;25.80;;;24.40;;
17921;SDS011;9086;50.966;3.144;2022-11-15T15:56:34;26.13;;;24.83;;
17921;SDS011;9086;50.966;3.144;2022-11-15T15:59:00;29.63;;;28.13;;
17921;SDS011;9086;50.966;3.144;2022-11-15T16:01:28;30.47;;;29.17;;
17921;SDS011;9086;50.966;3.144;2022-11-15T16:03:54;36.47;;;34.30;;
17921;SDS011;9086;50.966;3.144;2022-11-15T16:06:38;32.53;;;31.03;;
17921;SDS011;9086;50.966;3.144;2022-11-15T16:09:10;37.43;;;35.87;;
17921;SDS011;9086;50.966;3.144;2022-11-15T16:11:38;38.37;;;36.77;;
17921;SDS011;9086;50.966;3.144;2022-11-15T16:14:04;36.77;;;35.33;;
17921;SDS011;9086;50.966;3.144;2022-11-15T16:16:30;44.07;;;42.17;;
17921;SDS011;9086;50.966;3.144;2022-11-15T16:18:56;39.33;;;37.63;;
17921;SDS011;9086;50.966;3.144;2022-11-15T16:21:22;44.00;;;42.37;;
17921;SDS011;9086;50.966;3.144;2022-11-15T16:23:48;45.53;;;43.53;;
17921;SDS011;9086;50.966;3.144;2022-11-15T16:26:21;49.03;;;46.93;;
17921;SDS011;9086;50.966;3.144;2022-11-15T16:28:47;55.67;;;53.30;;
17921;SDS011;9086;50.966;3.144;2022-11-15T16:31:13;51.50;;;49.30;;
17921;SDS011;9086;50.966;3.144;2022-11-15T16:33:39;55.47;;;53.17;;